createdAt,value
2022-12-18T00:00:40.486Z,10.70
2022-12-18T00:02:58.530Z,10.40
2022-12-18T00:05:15.884Z,10.35
2022-12-18T00:07:32.934Z,11.18
2022-12-18T00:09:52.753Z,10.43
2022-12-18T00:14:33.201Z,10.75
2022-12-18T00:16:50.129Z,10.18
2022-12-18T00:19:07.198Z,11.10
2022-12-18T00:21:24.179Z,10.77
2022-12-18T00:23:42.883Z,11.32
2022-12-18T00:26:00.103Z,10.15
2022-12-18T00:28:17.145Z,11.18
2022-12-18T00:30:34.451Z,11.48
2022-12-18T00:32:51.384Z,11.40
2022-12-18T00:35:08.453Z,12.02
2022-12-18T00:37:25.543Z,11.65
2022-12-18T00:39:42.504Z,12.18
2022-12-18T00:41:59.372Z,12.32
2022-12-18T00:44:16.246Z,12.32
2022-12-18T00:46:33.568Z,11.40
2022-12-18T00:48:50.528Z,12.05
2022-12-18T00:51:08.601Z,11.88
2022-12-18T00:53:25.554Z,11.95
2022-12-18T00:55:42.606Z,11.60
2022-12-18T00:57:59.746Z,10.95
2022-12-18T01:00:16.764Z,11.70
2022-12-18T01:02:33.922Z,11.50
2022-12-18T01:04:50.950Z,11.23
2022-12-18T01:07:08.215Z,12.40
2022-12-18T01:09:26.390Z,12.57
2022-12-18T01:11:43.545Z,10.70
2022-12-18T01:14:00.625Z,11.45
2022-12-18T01:16:17.752Z,11.60
2022-12-18T01:18:35.139Z,12.00
2022-12-18T01:20:52.125Z,12.15
2022-12-18T01:23:10.016Z,12.98
2022-12-18T01:25:27.290Z,11.35
2022-12-18T01:27:45.289Z,11.75
2022-12-18T01:30:02.357Z,11.40
2022-12-18T01:32:19.316Z,11.00
2022-12-18T01:34:36.715Z,11.80
2022-12-18T01:36:53.937Z,12.10
2022-12-18T01:39:10.806Z,11.95
2022-12-18T01:41:28.015Z,12.63
2022-12-18T01:43:45.314Z,12.65
2022-12-18T01:46:03.605Z,13.70
2022-12-18T01:48:20.920Z,13.50
2022-12-18T01:50:37.997Z,14.10
2022-12-18T01:52:55.337Z,13.88
2022-12-18T01:55:13.365Z,12.93
2022-12-18T01:57:30.250Z,13.27
2022-12-18T01:59:47.223Z,12.55
2022-12-18T02:02:04.281Z,12.63
2022-12-18T02:04:21.628Z,12.48
2022-12-18T02:06:38.551Z,12.63
2022-12-18T02:08:55.876Z,11.77
2022-12-18T02:11:12.929Z,13.88
2022-12-18T02:13:29.855Z,12.52
2022-12-18T02:15:46.868Z,13.18
2022-12-18T02:18:03.872Z,13.90
2022-12-18T02:20:20.950Z,12.95
2022-12-18T02:22:37.981Z,14.00
2022-12-18T02:24:55.228Z,14.48
2022-12-18T02:27:12.499Z,12.98
2022-12-18T02:29:29.422Z,14.43
2022-12-18T02:31:46.685Z,14.52
2022-12-18T02:34:03.959Z,13.32
2022-12-18T02:36:21.004Z,13.90
2022-12-18T02:38:38.089Z,15.32
2022-12-18T02:40:54.997Z,14.35
2022-12-18T02:43:12.263Z,15.00
2022-12-18T02:45:29.346Z,16.35
2022-12-18T02:47:46.469Z,16.83
2022-12-18T02:50:03.478Z,17.55
2022-12-18T02:52:20.745Z,16.30
2022-12-18T02:54:37.771Z,15.10
2022-12-18T02:56:55.089Z,16.48
2022-12-18T02:59:12.120Z,16.42
2022-12-18T03:01:29.189Z,17.35
2022-12-18T03:03:46.480Z,15.18
2022-12-18T03:06:03.347Z,17.05
2022-12-18T03:08:21.503Z,16.33
2022-12-18T03:10:39.493Z,16.52
2022-12-18T03:12:56.719Z,15.65
2022-12-18T03:15:17.653Z,16.63
2022-12-18T03:17:34.915Z,16.45
2022-12-18T03:19:52.126Z,16.38
2022-12-18T03:22:09.026Z,16.25
2022-12-18T03:24:25.928Z,16.23
2022-12-18T03:26:43.167Z,17.08
2022-12-18T03:29:00.091Z,17.45
2022-12-18T03:31:17.028Z,16.40
2022-12-18T03:33:35.439Z,18.33
2022-12-18T03:35:52.332Z,16.05
2022-12-18T03:38:09.334Z,17.13
2022-12-18T03:40:26.602Z,16.55
2022-12-18T03:42:43.881Z,16.55
2022-12-18T03:45:01.115Z,15.50
2022-12-18T03:47:18.173Z,18.65
2022-12-18T03:49:35.187Z,17.13
2022-12-18T03:51:52.218Z,16.85
2022-12-18T03:54:09.450Z,17.15
2022-12-18T03:56:26.647Z,16.88
2022-12-18T03:58:43.967Z,16.75
2022-12-18T04:01:01.559Z,17.38
2022-12-18T04:03:20.622Z,17.30
2022-12-18T04:05:40.940Z,16.95
2022-12-18T04:07:59.234Z,16.83
2022-12-18T04:10:16.168Z,17.45
2022-12-18T04:12:33.441Z,16.58
2022-12-18T04:14:50.681Z,16.35
2022-12-18T04:17:07.873Z,16.58
2022-12-18T04:19:24.789Z,17.05
2022-12-18T04:21:41.785Z,16.77
2022-12-18T04:23:58.852Z,17.77
2022-12-18T04:26:16.207Z,18.00
2022-12-18T04:28:33.107Z,17.95
2022-12-18T04:30:50.452Z,18.08
2022-12-18T04:33:07.558Z,18.10
2022-12-18T04:35:24.424Z,17.20
2022-12-18T04:37:41.728Z,18.05
2022-12-18T04:39:58.710Z,16.83
2022-12-18T04:42:15.946Z,16.95
2022-12-18T04:44:33.376Z,18.13
2022-12-18T04:46:50.401Z,18.63
2022-12-18T04:49:08.910Z,18.10
2022-12-18T04:51:26.863Z,18.63
2022-12-18T04:53:44.189Z,18.33
2022-12-18T04:56:01.455Z,18.23
2022-12-18T04:58:18.749Z,17.77
2022-12-18T05:00:35.741Z,18.80
2022-12-18T05:02:53.173Z,18.27
2022-12-18T05:05:10.617Z,18.70
2022-12-18T05:07:27.502Z,18.98
2022-12-18T05:09:44.438Z,17.77
2022-12-18T05:12:02.155Z,18.60
2022-12-18T05:14:20.215Z,18.60
2022-12-18T05:16:37.415Z,18.65
2022-12-18T05:18:54.401Z,19.48
2022-12-18T05:21:11.468Z,19.95
2022-12-18T05:23:28.775Z,19.50
2022-12-18T05:25:45.810Z,18.83
2022-12-18T05:28:03.106Z,19.60
2022-12-18T05:30:19.995Z,20.10
2022-12-18T05:32:37.032Z,19.85
2022-12-18T05:34:54.090Z,19.90
2022-12-18T05:37:12.137Z,21.50
2022-12-18T05:39:30.128Z,20.20
2022-12-18T05:41:47.389Z,19.75
2022-12-18T05:44:04.387Z,18.40
2022-12-18T05:46:22.875Z,21.40
2022-12-18T05:48:39.954Z,20.30
2022-12-18T05:50:56.890Z,20.45
2022-12-18T05:53:13.857Z,19.63
2022-12-18T05:55:31.877Z,18.83
2022-12-18T05:57:49.230Z,21.30
2022-12-18T06:00:06.355Z,19.05
2022-12-18T06:02:23.474Z,20.13
2022-12-18T06:04:40.741Z,20.67
2022-12-18T06:06:57.589Z,20.17
2022-12-18T06:09:14.633Z,20.63
2022-12-18T06:11:31.843Z,20.35
2022-12-18T06:13:48.764Z,20.02
2022-12-18T06:16:06.032Z,19.63
2022-12-18T06:18:23.216Z,22.52
2022-12-18T06:20:40.286Z,20.83
2022-12-18T06:22:57.306Z,20.55
2022-12-18T06:25:14.317Z,19.70
2022-12-18T06:27:31.597Z,20.40
2022-12-18T06:29:48.572Z,19.63
2022-12-18T06:32:05.823Z,20.70
2022-12-18T06:34:22.881Z,18.77
2022-12-18T06:36:40.158Z,19.88
2022-12-18T06:38:57.452Z,20.70
2022-12-18T06:41:14.511Z,20.35
2022-12-18T06:43:31.594Z,20.17
2022-12-18T06:45:48.911Z,20.45
2022-12-18T06:48:06.336Z,19.95
2022-12-18T06:50:23.602Z,20.58
2022-12-18T06:52:40.972Z,22.33
2022-12-18T06:54:59.211Z,22.52
2022-12-18T06:57:16.504Z,21.55
2022-12-18T06:59:33.587Z,20.27
2022-12-18T07:01:51.765Z,20.33
2022-12-18T07:04:08.964Z,22.05
2022-12-18T07:06:25.991Z,21.17
2022-12-18T07:08:43.363Z,21.05
2022-12-18T07:11:00.421Z,20.48
2022-12-18T07:13:17.757Z,20.45
2022-12-18T07:15:34.722Z,19.00
2022-12-18T07:17:51.721Z,20.10
2022-12-18T07:20:09.993Z,21.58
2022-12-18T07:22:27.306Z,21.00
2022-12-18T07:24:44.645Z,20.23
2022-12-18T07:27:01.971Z,20.52
2022-12-18T07:29:19.038Z,20.13
2022-12-18T07:31:36.196Z,21.30
2022-12-18T07:33:53.077Z,21.58
2022-12-18T07:36:10.017Z,21.17
2022-12-18T07:38:26.952Z,21.13
2022-12-18T07:40:44.589Z,21.42
2022-12-18T07:43:01.768Z,55.80
2022-12-18T07:45:18.989Z,32.83
2022-12-18T07:47:35.960Z,27.13
2022-12-18T07:49:53.326Z,24.80
2022-12-18T07:52:10.364Z,24.65
2022-12-18T07:54:27.407Z,22.05
2022-12-18T07:56:44.643Z,23.58
2022-12-18T07:59:01.577Z,22.30
2022-12-18T08:01:18.782Z,22.77
2022-12-18T08:03:37.356Z,24.55
2022-12-18T08:05:55.480Z,24.05
2022-12-18T08:08:12.834Z,24.02
2022-12-18T08:10:30.103Z,24.67
2022-12-18T08:12:48.086Z,23.15
2022-12-18T08:15:05.127Z,23.50
2022-12-18T08:17:23.627Z,58.97
2022-12-18T08:19:40.711Z,38.13
2022-12-18T08:21:57.768Z,28.58
2022-12-18T08:24:14.835Z,25.83
2022-12-18T08:26:32.201Z,24.73
2022-12-18T08:28:49.248Z,22.95
2022-12-18T08:31:07.750Z,22.10
2022-12-18T08:33:25.933Z,22.55
2022-12-18T08:35:45.975Z,22.85
2022-12-18T08:38:03.333Z,21.98
2022-12-18T08:40:20.547Z,22.60
2022-12-18T08:42:37.559Z,23.73
2022-12-18T08:44:54.457Z,22.23
2022-12-18T08:47:11.736Z,22.27
2022-12-18T08:49:28.805Z,24.67
2022-12-18T08:51:45.829Z,23.05
2022-12-18T08:54:02.803Z,23.27
2022-12-18T08:56:21.407Z,23.33
2022-12-18T08:58:39.744Z,23.85
2022-12-18T09:00:56.864Z,22.42
2022-12-18T09:03:15.018Z,22.80
2022-12-18T09:05:31.914Z,23.63
2022-12-18T09:07:48.851Z,22.55
2022-12-18T09:10:05.864Z,25.13
2022-12-18T09:12:22.999Z,23.48
2022-12-18T09:14:40.316Z,24.52
2022-12-18T09:16:58.491Z,22.85
2022-12-18T09:19:15.473Z,22.65
2022-12-18T09:21:34.786Z,23.15
2022-12-18T09:23:54.475Z,22.83
2022-12-18T09:26:11.439Z,22.48
2022-12-18T09:28:28.525Z,23.10
2022-12-18T09:30:46.859Z,24.60
2022-12-18T09:33:03.929Z,23.63
2022-12-18T09:35:21.210Z,23.80
2022-12-18T09:37:38.190Z,23.55
2022-12-18T09:39:55.131Z,23.08
2022-12-18T09:42:12.464Z,23.73
2022-12-18T09:44:29.811Z,24.58
2022-12-18T09:46:47.286Z,23.55
2022-12-18T09:49:04.368Z,23.70
2022-12-18T09:51:22.604Z,23.00
2022-12-18T09:53:39.554Z,22.67
2022-12-18T09:55:56.891Z,23.48
2022-12-18T09:58:14.238Z,23.50
2022-12-18T10:00:31.162Z,30.13
2022-12-18T10:02:48.330Z,23.80
2022-12-18T10:05:05.700Z,23.25
2022-12-18T10:07:23.261Z,23.65
2022-12-18T10:09:40.707Z,22.10
2022-12-18T10:12:00.741Z,22.42
2022-12-18T10:14:18.399Z,23.65
2022-12-18T10:16:38.546Z,22.92
2022-12-18T10:18:56.131Z,22.60
2022-12-18T10:21:13.342Z,23.67
2022-12-18T10:23:31.282Z,22.70
2022-12-18T10:25:48.415Z,22.45
2022-12-18T10:28:05.735Z,22.83
2022-12-18T10:30:22.968Z,20.88
2022-12-18T10:32:40.247Z,21.52
2022-12-18T10:35:00.392Z,22.83
2022-12-18T10:37:18.115Z,22.70
2022-12-18T10:39:35.664Z,21.85
2022-12-18T10:41:52.752Z,22.27
2022-12-18T10:44:10.142Z,22.42
2022-12-18T10:46:28.224Z,27.17
2022-12-18T10:48:46.367Z,25.58
2022-12-18T10:51:12.580Z,23.67
2022-12-18T10:53:30.409Z,22.95
2022-12-18T10:55:47.611Z,25.25
2022-12-18T10:58:04.573Z,23.65
2022-12-18T11:00:21.833Z,23.25
2022-12-18T11:02:39.086Z,23.35
2022-12-18T11:04:56.341Z,23.05
2022-12-18T11:07:13.846Z,26.30
2022-12-18T11:09:30.898Z,22.65
2022-12-18T11:11:47.885Z,23.95
2022-12-18T11:14:04.899Z,23.75
2022-12-18T11:16:22.923Z,23.83
2022-12-18T11:18:40.446Z,24.30
2022-12-18T11:20:58.898Z,24.52
2022-12-18T11:23:15.966Z,24.00
2022-12-18T11:25:35.673Z,24.30
2022-12-18T11:27:53.193Z,24.77
2022-12-18T11:30:10.712Z,24.55
2022-12-18T11:32:28.865Z,24.05
2022-12-18T11:34:45.927Z,23.20
2022-12-18T11:37:02.833Z,23.55
2022-12-18T11:39:22.751Z,24.15
2022-12-18T11:41:40.576Z,25.27
2022-12-18T11:43:57.652Z,24.15
2022-12-18T11:46:19.404Z,24.52
2022-12-18T11:48:37.265Z,23.77
2022-12-18T11:50:54.256Z,23.98
2022-12-18T11:53:11.268Z,24.67
2022-12-18T11:55:28.656Z,25.02
2022-12-18T11:57:47.007Z,24.35
2022-12-18T12:00:03.991Z,24.05
2022-12-18T12:02:21.543Z,23.67
2022-12-18T12:04:38.587Z,22.80
2022-12-18T12:07:02.747Z,22.75
2022-12-18T12:09:20.019Z,26.48
2022-12-18T12:11:37.295Z,23.90
2022-12-18T12:13:54.397Z,23.65
2022-12-18T12:16:11.866Z,23.65
2022-12-18T12:18:29.771Z,23.90
2022-12-18T12:20:46.860Z,24.45
2022-12-18T12:23:04.846Z,25.02
2022-12-18T12:25:22.193Z,25.67
2022-12-18T12:27:39.223Z,23.67
2022-12-18T12:29:56.695Z,24.13
2022-12-18T12:32:13.972Z,25.23
2022-12-18T12:34:30.934Z,24.13
2022-12-18T12:36:47.887Z,24.23
2022-12-18T12:39:04.950Z,24.52
2022-12-18T12:41:22.024Z,25.40
2022-12-18T12:43:44.632Z,24.73
2022-12-18T12:46:07.580Z,24.25
2022-12-18T12:48:25.213Z,25.95
2022-12-18T12:50:42.217Z,26.17
2022-12-18T12:53:00.871Z,26.33
2022-12-18T12:55:18.178Z,25.33
2022-12-18T12:57:36.555Z,25.05
2022-12-18T12:59:53.650Z,24.45
2022-12-18T13:02:11.198Z,23.83
2022-12-18T13:04:29.702Z,24.95
2022-12-18T13:06:46.721Z,27.30
2022-12-18T13:09:04.216Z,26.70
2022-12-18T13:11:21.319Z,26.27
2022-12-18T13:13:38.891Z,24.67
2022-12-18T13:15:56.149Z,25.80
2022-12-18T13:18:13.159Z,27.23
2022-12-18T13:20:30.272Z,27.20
2022-12-18T13:22:47.288Z,28.10
2022-12-18T13:25:04.354Z,29.42
2022-12-18T13:27:21.289Z,26.70
2022-12-18T13:29:39.042Z,28.92
2022-12-18T13:31:56.092Z,26.42
2022-12-18T13:34:29.522Z,27.15
2022-12-18T13:36:47.159Z,27.83
2022-12-18T13:39:04.758Z,28.05
2022-12-18T13:41:22.075Z,28.88
2022-12-18T13:43:39.923Z,28.55
2022-12-18T13:45:57.058Z,27.88
2022-12-18T13:48:14.073Z,28.77
2022-12-18T13:50:35.816Z,27.90
2022-12-18T13:52:53.181Z,27.35
2022-12-18T13:55:10.477Z,27.30
2022-12-18T13:57:28.090Z,28.92
2022-12-18T13:59:45.713Z,28.13
2022-12-18T14:02:04.441Z,28.23
2022-12-18T14:04:21.676Z,26.85
2022-12-18T14:06:39.034Z,27.10
2022-12-18T14:08:55.932Z,26.20
2022-12-18T14:11:12.868Z,27.02
2022-12-18T14:13:31.629Z,27.25
2022-12-18T14:15:48.994Z,28.73
2022-12-18T14:18:06.229Z,27.27
2022-12-18T14:20:23.224Z,29.60
2022-12-18T14:22:40.223Z,30.23
2022-12-18T14:24:58.101Z,29.42
2022-12-18T14:27:16.181Z,29.05
2022-12-18T14:29:33.274Z,28.35
2022-12-18T14:31:50.513Z,29.55
2022-12-18T14:34:09.320Z,29.40
2022-12-18T14:36:26.309Z,28.02
2022-12-18T14:38:43.289Z,27.60
2022-12-18T14:41:01.182Z,27.08
2022-12-18T14:43:18.277Z,27.55
2022-12-18T14:45:41.814Z,27.98
2022-12-18T14:48:00.166Z,27.85
2022-12-18T14:50:17.461Z,29.45
2022-12-18T14:52:34.365Z,28.63
2022-12-18T14:54:51.264Z,28.08
2022-12-18T14:57:08.540Z,27.85
2022-12-18T14:59:26.267Z,28.58
2022-12-18T15:01:43.492Z,28.48
2022-12-18T15:04:00.629Z,29.15
2022-12-18T15:06:17.615Z,28.83
2022-12-18T15:08:35.641Z,28.23
2022-12-18T15:10:53.956Z,28.88
2022-12-18T15:13:10.990Z,30.05
2022-12-18T15:15:29.048Z,30.23
2022-12-18T15:17:46.002Z,30.45
2022-12-18T15:20:02.973Z,35.17
2022-12-18T15:22:19.954Z,38.08
2022-12-18T15:24:37.081Z,36.17
2022-12-18T15:26:54.051Z,38.50
2022-12-18T15:29:15.623Z,38.72
2022-12-18T15:31:33.349Z,51.08
2022-12-18T15:33:50.690Z,40.90
2022-12-18T15:36:07.705Z,40.92
2022-12-18T15:38:24.651Z,39.38
2022-12-18T15:40:41.680Z,32.25
2022-12-18T15:42:58.715Z,31.45
2022-12-18T15:45:15.655Z,32.05
2022-12-18T15:47:32.798Z,32.03
2022-12-18T15:49:51.179Z,32.20
2022-12-18T15:52:09.915Z,30.38
2022-12-18T15:54:26.995Z,30.00
2022-12-18T15:56:43.959Z,30.02
2022-12-18T15:59:01.215Z,32.03
2022-12-18T16:01:18.872Z,30.95
2022-12-18T16:03:37.246Z,31.25
2022-12-18T16:05:54.322Z,32.65
2022-12-18T16:08:12.346Z,32.30
2022-12-18T16:10:30.264Z,31.45
2022-12-18T16:12:47.547Z,32.65
2022-12-18T16:15:04.876Z,29.67
2022-12-18T16:17:23.175Z,31.08
2022-12-18T16:19:40.176Z,30.00
2022-12-18T16:21:57.107Z,33.35
2022-12-18T16:24:14.202Z,33.15
2022-12-18T16:26:31.155Z,31.45
2022-12-18T16:28:48.660Z,32.03
2022-12-18T16:31:05.696Z,31.23
2022-12-18T16:33:23.017Z,32.08
2022-12-18T16:35:39.932Z,32.33
2022-12-18T16:37:56.985Z,31.00
2022-12-18T16:40:15.050Z,32.95
2022-12-18T16:42:32.120Z,31.15
2022-12-18T16:44:49.347Z,32.58
2022-12-18T16:47:06.367Z,30.88
2022-12-18T16:49:26.029Z,31.83
2022-12-18T16:51:43.372Z,32.10
2022-12-18T16:54:00.844Z,32.33
2022-12-18T16:56:19.977Z,31.75
2022-12-18T16:58:36.971Z,32.28
2022-12-18T17:00:54.047Z,30.25
2022-12-18T17:03:11.323Z,29.15
2022-12-18T17:05:29.531Z,32.03
2022-12-18T17:07:46.647Z,30.85
2022-12-18T17:10:03.550Z,31.63
2022-12-18T17:12:20.970Z,29.92
2022-12-18T17:14:37.898Z,31.70
2022-12-18T17:17:19.704Z,32.38
2022-12-18T17:19:32.177Z,30.25
2022-12-18T17:21:49.511Z,30.02
2022-12-18T17:24:06.614Z,30.85
2022-12-18T17:26:23.681Z,33.13
2022-12-18T17:28:40.634Z,32.35
2022-12-18T17:30:57.990Z,31.80
2022-12-18T17:33:15.111Z,32.70
2022-12-18T17:35:32.864Z,32.05
2022-12-18T17:37:50.228Z,32.38
2022-12-18T17:40:07.328Z,32.17
2022-12-18T17:42:24.610Z,30.42
2022-12-18T17:44:41.659Z,31.88
2022-12-18T17:46:58.800Z,30.88
2022-12-18T17:49:15.828Z,30.50
2022-12-18T17:51:32.804Z,32.88
2022-12-18T17:53:49.708Z,31.20
2022-12-18T17:56:06.934Z,29.92
2022-12-18T17:58:24.928Z,30.77
2022-12-18T18:00:42.285Z,32.33
2022-12-18T18:02:59.456Z,31.77
2022-12-18T18:05:17.580Z,32.67
2022-12-18T18:07:34.606Z,30.13
2022-12-18T18:09:51.660Z,30.98
2022-12-18T18:12:08.975Z,30.08
2022-12-18T18:14:26.105Z,31.13
2022-12-18T18:16:45.025Z,31.58
2022-12-18T18:19:02.197Z,32.83
2022-12-18T18:21:19.138Z,31.17
2022-12-18T18:23:36.847Z,32.08
2022-12-18T18:25:56.181Z,32.35
2022-12-18T18:28:13.829Z,30.73
2022-12-18T18:30:30.889Z,31.50
2022-12-18T18:32:47.990Z,32.10
2022-12-18T18:35:06.708Z,32.55
2022-12-18T18:37:26.702Z,32.22
2022-12-18T18:39:43.746Z,31.35
2022-12-18T18:42:01.061Z,30.80
2022-12-18T18:44:18.076Z,30.73
2022-12-18T18:46:35.052Z,31.05
2022-12-18T18:48:52.667Z,31.88
2022-12-18T18:51:10.033Z,31.08
2022-12-18T18:53:28.640Z,31.08
2022-12-18T18:55:51.703Z,31.77
2022-12-18T18:58:16.243Z,29.48
2022-12-18T19:00:33.382Z,28.52
2022-12-18T19:02:52.159Z,31.80
2022-12-18T19:05:11.029Z,31.60
2022-12-18T19:07:30.745Z,31.38
2022-12-18T19:09:48.138Z,32.88
2022-12-18T19:12:05.194Z,30.30
2022-12-18T19:14:22.664Z,29.80
2022-12-18T19:16:39.744Z,32.50
2022-12-18T19:19:01.555Z,32.10
2022-12-18T19:21:19.685Z,30.17
2022-12-18T19:23:36.759Z,30.92
2022-12-18T19:26:04.239Z,31.73
2022-12-18T19:28:31.146Z,38.20
2022-12-18T19:30:48.405Z,40.60
2022-12-18T19:33:26.795Z,38.53
2022-12-18T19:35:42.630Z,36.63
2022-12-18T19:37:59.999Z,33.65
2022-12-18T19:40:17.077Z,33.85
2022-12-18T19:42:35.652Z,31.85
2022-12-18T19:44:53.103Z,32.42
2022-12-18T19:47:10.420Z,31.60
2022-12-18T19:49:27.491Z,30.50
2022-12-18T19:51:44.534Z,30.60
2022-12-18T19:54:01.997Z,31.77
2022-12-18T19:56:19.440Z,30.83
2022-12-18T19:58:36.464Z,31.65
2022-12-18T20:00:53.458Z,31.38
2022-12-18T20:03:21.637Z,30.80
2022-12-18T20:05:42.520Z,30.10
2022-12-18T20:07:59.820Z,30.77
2022-12-18T20:10:17.698Z,30.60
2022-12-18T20:12:36.260Z,31.52
2022-12-18T20:14:53.368Z,31.27
2022-12-18T20:17:10.576Z,30.60
2022-12-18T20:19:27.885Z,32.67
2022-12-18T20:21:44.959Z,31.35
2022-12-18T20:24:02.349Z,30.63
2022-12-18T20:26:19.359Z,31.27
2022-12-18T20:28:36.550Z,31.80
2022-12-18T20:30:56.235Z,32.05
2022-12-18T20:33:13.259Z,30.63
2022-12-18T20:35:30.469Z,31.15
2022-12-18T20:37:48.857Z,31.45
2022-12-18T20:40:08.143Z,31.55
2022-12-18T20:42:25.834Z,31.42
2022-12-18T20:44:44.061Z,33.40
2022-12-18T20:47:02.328Z,33.33
2022-12-18T20:49:24.372Z,32.45
2022-12-18T20:51:41.652Z,30.52
2022-12-18T20:53:58.647Z,31.38
2022-12-18T20:56:17.785Z,29.67
2022-12-18T20:58:38.603Z,31.33
2022-12-18T21:00:55.967Z,29.75
2022-12-18T21:03:13.108Z,29.38
2022-12-18T21:05:30.448Z,29.88
2022-12-18T21:07:47.481Z,30.25
2022-12-18T21:10:04.446Z,30.65
2022-12-18T21:12:21.442Z,30.30
2022-12-18T21:14:38.485Z,30.77
2022-12-18T21:16:55.783Z,31.83
2022-12-18T21:19:13.136Z,30.23
2022-12-18T21:21:30.301Z,32.42
2022-12-18T21:23:50.477Z,31.95
2022-12-18T21:26:07.672Z,31.67
2022-12-18T21:28:25.642Z,31.90
2022-12-18T21:30:42.616Z,29.30
2022-12-18T21:32:59.647Z,29.63
2022-12-18T21:35:16.668Z,31.88
2022-12-18T21:37:34.607Z,30.80
2022-12-18T21:39:51.507Z,31.95
2022-12-18T21:42:08.567Z,30.90
2022-12-18T21:44:25.937Z,30.75
2022-12-18T21:46:42.900Z,32.20
2022-12-18T21:48:59.797Z,30.73
2022-12-18T21:51:16.806Z,32.63
2022-12-18T21:53:33.785Z,31.45
2022-12-18T21:55:51.106Z,32.20
2022-12-18T21:58:07.982Z,32.42
2022-12-18T22:00:25.211Z,32.30
2022-12-18T22:02:42.326Z,31.08
2022-12-18T22:04:59.402Z,29.75
2022-12-18T22:07:16.673Z,31.35
2022-12-18T22:09:33.562Z,30.70
2022-12-18T22:11:50.648Z,30.75
2022-12-18T22:14:07.559Z,29.35
2022-12-18T22:16:25.500Z,30.38
2022-12-18T22:18:42.416Z,31.00
2022-12-18T22:20:59.629Z,30.65
2022-12-18T22:23:16.642Z,31.05
2022-12-18T22:25:33.712Z,32.53
2022-12-18T22:27:53.234Z,31.58
2022-12-18T22:30:11.188Z,31.20
2022-12-18T22:32:31.498Z,32.55
2022-12-18T22:34:48.993Z,31.20
2022-12-18T22:37:05.939Z,33.58
2022-12-18T22:39:23.271Z,31.08
2022-12-18T22:41:41.015Z,31.13
2022-12-18T22:43:58.189Z,31.30
2022-12-18T22:46:15.258Z,30.27
2022-12-18T22:48:32.290Z,32.15
2022-12-18T22:50:49.576Z,30.88
2022-12-18T22:53:07.828Z,29.90
2022-12-18T22:55:24.834Z,32.05
2022-12-18T22:57:49.067Z,31.85
2022-12-18T23:00:06.337Z,31.33
2022-12-18T23:02:24.753Z,32.72
2022-12-18T23:04:42.007Z,30.00
2022-12-18T23:06:58.917Z,31.33
2022-12-18T23:09:16.349Z,31.88
2022-12-18T23:11:33.264Z,31.45
2022-12-18T23:13:50.508Z,33.10
2022-12-18T23:16:11.188Z,32.13
2022-12-18T23:18:28.328Z,32.60
2022-12-18T23:20:45.402Z,32.05
2022-12-18T23:23:04.020Z,32.05
2022-12-18T23:25:21.297Z,31.17
2022-12-18T23:27:38.640Z,32.50
2022-12-18T23:29:55.588Z,32.65
2022-12-18T23:32:15.497Z,33.03
2022-12-18T23:34:32.393Z,33.05
2022-12-18T23:36:53.267Z,32.53
2022-12-18T23:39:24.385Z,32.13
2022-12-18T23:44:03.817Z,30.10
2022-12-18T23:46:20.916Z,32.53
2022-12-18T23:48:37.976Z,31.58
2022-12-18T23:50:54.990Z,31.33
2022-12-18T23:53:12.021Z,33.35
2022-12-18T23:55:28.947Z,30.80
2022-12-18T23:57:46.380Z,33.05
